createdAt,value
2019-03-23T00:01:42.734Z,93.48
2019-03-23T00:04:15.811Z,93.66
2019-03-23T00:06:47.653Z,93.78
2019-03-23T00:09:21.226Z,93.60
2019-03-23T00:11:55.952Z,93.69
2019-03-23T00:14:29.611Z,93.90
2019-03-23T00:17:02.591Z,94.25
2019-03-23T00:19:35.657Z,94.27
2019-03-23T00:22:08.600Z,94.42
2019-03-23T00:24:41.580Z,94.63
2019-03-23T00:27:14.816Z,94.60
2019-03-23T00:29:48.265Z,94.84
2019-03-23T00:32:20.636Z,95.06
2019-03-23T00:34:53.590Z,95.30
2019-03-23T00:37:27.594Z,95.57
2019-03-23T00:40:01.677Z,95.64
2019-03-23T00:42:34.735Z,95.50
2019-03-23T00:45:09.547Z,95.24
2019-03-23T00:47:41.831Z,95.27
2019-03-23T00:50:15.004Z,95.42
2019-03-23T00:52:50.458Z,95.58
2019-03-23T00:55:24.889Z,95.59
2019-03-23T00:57:56.888Z,95.67
2019-03-23T01:00:29.857Z,95.87
2019-03-23T01:03:03.852Z,95.94
2019-03-23T01:05:35.877Z,95.98
2019-03-23T01:08:08.758Z,96.01
2019-03-23T01:10:45.956Z,96.02
2019-03-23T01:13:17.798Z,96.08
2019-03-23T01:15:50.907Z,95.90
2019-03-23T01:18:23.262Z,96.07
2019-03-23T01:20:56.955Z,96.20
2019-03-23T01:23:30.002Z,96.48
2019-03-23T01:26:04.118Z,96.90
2019-03-23T01:28:35.922Z,97.04
2019-03-23T01:31:08.997Z,97.61
2019-03-23T01:33:42.045Z,98.06
2019-03-23T01:36:14.909Z,98.20
2019-03-23T01:38:49.127Z,98.03
2019-03-23T01:41:23.130Z,97.67
2019-03-23T01:43:58.657Z,97.37
2019-03-23T01:46:32.913Z,97.34
2019-03-23T01:49:05.368Z,97.37
2019-03-23T01:51:39.042Z,97.47
2019-03-23T01:54:12.089Z,97.75
2019-03-23T01:56:45.886Z,97.97
2019-03-23T01:59:18.230Z,97.92
2019-03-23T02:01:51.325Z,97.92
2019-03-23T02:04:24.220Z,98.20
2019-03-23T02:06:56.097Z,98.37
2019-03-23T02:09:28.168Z,98.42
2019-03-23T02:12:01.567Z,98.14
2019-03-23T02:14:37.666Z,98.33
2019-03-23T02:17:12.241Z,98.46
2019-03-23T02:19:44.191Z,98.32
2019-03-23T02:22:18.259Z,98.23
2019-03-23T02:24:51.238Z,98.07
2019-03-23T02:27:25.597Z,98.13
2019-03-23T02:29:59.686Z,98.23
2019-03-23T02:32:32.313Z,98.44
2019-03-23T02:35:06.010Z,98.66
2019-03-23T02:37:40.707Z,98.92
2019-03-23T02:40:15.325Z,98.98
2019-03-23T02:42:48.394Z,98.96
2019-03-23T02:45:20.767Z,98.99
2019-03-23T02:47:54.501Z,99.25
2019-03-23T02:50:27.367Z,99.24
2019-03-23T02:52:59.492Z,99.41
2019-03-23T02:55:32.306Z,99.45
2019-03-23T02:58:04.312Z,99.35
2019-03-23T03:00:37.454Z,99.14
2019-03-23T03:03:11.370Z,99.07
2019-03-23T03:05:45.350Z,99.27
2019-03-23T03:08:17.314Z,99.26
2019-03-23T03:10:50.412Z,99.20
2019-03-23T03:13:25.337Z,99.27
2019-03-23T03:15:57.705Z,99.29
2019-03-23T03:18:29.955Z,98.99
2019-03-23T03:21:03.558Z,99.07
2019-03-23T03:23:37.696Z,99.28
2019-03-23T03:26:11.568Z,99.31
2019-03-23T03:28:43.498Z,99.20
2019-03-23T03:31:15.486Z,99.21
2019-03-23T03:33:47.968Z,99.25
2019-03-23T03:36:22.309Z,99.34
2019-03-23T03:38:54.771Z,99.34
2019-03-23T03:41:26.682Z,99.39
2019-03-23T03:43:58.530Z,99.19
2019-03-23T03:46:30.663Z,99.36
2019-03-23T03:49:12.240Z,100.00
2019-03-23T03:51:38.623Z,100.00
2019-03-23T03:54:11.625Z,100.00
2019-03-23T03:56:45.674Z,100.00
2019-03-23T03:59:17.851Z,100.00
2019-03-23T04:01:50.638Z,100.00
2019-03-23T04:04:22.470Z,100.00
2019-03-23T04:06:56.698Z,100.00
2019-03-23T04:09:29.701Z,100.00
2019-03-23T04:12:03.880Z,100.00
2019-03-23T04:14:35.754Z,100.00
2019-03-23T04:17:08.815Z,100.00
2019-03-23T04:19:41.907Z,100.00
2019-03-23T04:22:14.745Z,100.00
2019-03-23T04:24:47.634Z,100.00
2019-03-23T04:27:23.097Z,100.00
2019-03-23T04:29:56.830Z,100.00
2019-03-23T04:32:29.879Z,100.00
2019-03-23T04:35:07.097Z,100.00
2019-03-23T04:37:41.730Z,100.00
2019-03-23T04:40:14.911Z,100.00
2019-03-23T04:42:48.894Z,100.00
2019-03-23T04:45:22.364Z,100.00
2019-03-23T04:47:55.908Z,100.00
2019-03-23T04:50:30.125Z,100.00
2019-03-23T04:53:03.001Z,100.00
2019-03-23T04:55:36.383Z,100.00
2019-03-23T04:58:09.022Z,100.00
2019-03-23T05:00:40.925Z,100.00
2019-03-23T05:03:15.392Z,100.00
2019-03-23T05:05:48.191Z,100.00
2019-03-23T05:08:21.063Z,100.00
2019-03-23T05:10:54.117Z,100.00
2019-03-23T05:13:27.080Z,100.00
2019-03-23T05:15:58.955Z,100.00
2019-03-23T05:18:33.028Z,100.00
2019-03-23T05:21:05.855Z,100.00
2019-03-23T05:23:40.657Z,100.00
2019-03-23T05:26:15.511Z,100.00
2019-03-23T05:28:49.767Z,100.00
2019-03-23T05:31:24.232Z,100.00
2019-03-23T05:33:57.564Z,100.00
2019-03-23T05:36:30.301Z,100.00
2019-03-23T05:39:06.305Z,100.00
2019-03-23T05:41:39.152Z,100.00
2019-03-23T05:44:12.643Z,100.00
2019-03-23T05:46:47.193Z,100.00
2019-03-23T05:49:21.245Z,100.00
2019-03-23T05:51:54.599Z,100.00
2019-03-23T05:54:27.259Z,100.00
2019-03-23T05:57:01.323Z,100.00
2019-03-23T05:59:37.730Z,100.00
2019-03-23T06:02:12.247Z,100.00
2019-03-23T06:04:46.400Z,100.00
2019-03-23T06:07:21.863Z,100.00
2019-03-23T06:09:55.282Z,100.00
2019-03-23T06:12:27.201Z,100.00
2019-03-23T06:14:59.366Z,99.19
2019-03-23T06:17:35.009Z,98.46
2019-03-23T06:20:09.760Z,97.69
2019-03-23T06:22:43.383Z,97.33
2019-03-23T06:25:15.519Z,97.01
2019-03-23T06:27:50.017Z,97.08
2019-03-23T06:30:23.531Z,96.99
2019-03-23T06:32:59.339Z,97.44
2019-03-23T06:35:31.363Z,97.60
2019-03-23T06:38:03.723Z,97.23
2019-03-23T06:40:36.280Z,96.54
2019-03-23T06:43:09.600Z,96.21
2019-03-23T06:45:42.670Z,95.62
2019-03-23T06:48:15.563Z,95.48
2019-03-23T06:50:48.348Z,95.26
2019-03-23T06:53:21.517Z,95.14
2019-03-23T06:55:53.430Z,95.36
2019-03-23T06:58:27.897Z,95.04
2019-03-23T07:01:00.722Z,95.13
2019-03-23T07:03:33.629Z,95.00
2019-03-23T07:06:05.562Z,94.35
2019-03-23T07:08:39.559Z,93.35
2019-03-23T07:11:13.369Z,93.15
2019-03-23T07:13:45.567Z,93.25
2019-03-23T07:16:18.678Z,93.29
2019-03-23T07:18:51.525Z,93.53
2019-03-23T07:21:24.684Z,93.45
2019-03-23T07:23:56.882Z,93.57
2019-03-23T07:26:30.734Z,93.93
2019-03-23T07:29:04.756Z,93.49
2019-03-23T07:31:36.636Z,92.99
2019-03-23T07:34:09.745Z,93.63
2019-03-23T07:36:42.331Z,94.10
2019-03-23T07:39:26.451Z,94.01
2019-03-23T07:41:54.273Z,93.28
2019-03-23T07:44:27.680Z,93.86
2019-03-23T07:47:00.664Z,94.65
2019-03-23T07:49:32.752Z,94.96
2019-03-23T07:52:04.691Z,94.45
2019-03-23T07:54:36.818Z,94.84
2019-03-23T07:57:09.979Z,95.27
2019-03-23T07:59:42.751Z,95.08
2019-03-23T08:02:15.609Z,94.04
2019-03-23T08:04:49.530Z,94.39
2019-03-23T08:07:23.761Z,93.52
2019-03-23T08:09:55.748Z,92.65
2019-03-23T08:12:28.775Z,91.34
2019-03-23T08:15:02.899Z,90.42
2019-03-23T08:17:37.042Z,89.75
2019-03-23T08:20:12.131Z,88.38
2019-03-23T08:22:45.803Z,89.02
2019-03-23T08:25:19.296Z,88.71
2019-03-23T08:27:55.732Z,87.15
2019-03-23T08:30:28.143Z,86.81
2019-03-23T08:33:02.821Z,87.09
2019-03-23T08:35:36.067Z,87.02
2019-03-23T08:38:08.901Z,87.44
2019-03-23T08:40:43.862Z,87.28
2019-03-23T08:43:18.031Z,86.00
2019-03-23T08:45:51.190Z,85.34
2019-03-23T08:48:26.735Z,84.20
2019-03-23T08:51:01.417Z,83.29
2019-03-23T08:53:33.416Z,83.57
2019-03-23T08:56:05.984Z,82.54
2019-03-23T08:58:38.427Z,83.17
2019-03-23T09:01:12.182Z,81.63
2019-03-23T09:03:52.481Z,80.08
2019-03-23T09:06:20.932Z,80.72
2019-03-23T09:08:54.132Z,80.15
2019-03-23T09:11:27.179Z,79.79
2019-03-23T09:13:59.081Z,78.03
2019-03-23T09:16:33.212Z,76.35
2019-03-23T09:19:06.683Z,76.81
2019-03-23T09:21:39.134Z,76.57
2019-03-23T09:24:12.304Z,77.19
2019-03-23T09:26:45.126Z,75.95
2019-03-23T09:29:17.309Z,72.91
2019-03-23T09:31:51.640Z,72.33
2019-03-23T09:34:25.287Z,70.64
2019-03-23T09:36:59.623Z,70.94
2019-03-23T09:39:32.135Z,72.71
2019-03-23T09:42:04.546Z,71.81
2019-03-23T09:44:36.675Z,71.03
2019-03-23T09:47:09.363Z,71.55
2019-03-23T09:49:42.096Z,70.95
2019-03-23T09:52:15.470Z,69.42
2019-03-23T09:54:48.214Z,67.59
2019-03-23T09:57:21.354Z,67.59
2019-03-23T09:59:54.837Z,66.27
2019-03-23T10:02:28.211Z,68.71
2019-03-23T10:05:01.362Z,65.34
2019-03-23T10:07:33.293Z,63.62
2019-03-23T10:10:06.734Z,62.65
2019-03-23T10:12:40.477Z,61.43
2019-03-23T10:15:13.300Z,59.43
2019-03-23T10:18:03.622Z,57.88
2019-03-23T10:20:53.698Z,58.89
2019-03-23T10:23:44.825Z,56.98
2019-03-23T10:26:35.034Z,58.63
2019-03-23T10:29:24.856Z,57.08
2019-03-23T10:32:15.026Z,56.79
2019-03-23T10:35:06.305Z,56.16
2019-03-23T10:37:56.215Z,54.45
2019-03-23T10:40:46.346Z,55.18
2019-03-23T10:43:38.982Z,54.15
2019-03-23T10:46:29.147Z,53.28
2019-03-23T10:49:19.074Z,54.42
2019-03-23T10:52:09.350Z,54.72
2019-03-23T10:54:43.060Z,53.16
2019-03-23T10:57:17.533Z,54.31
2019-03-23T10:59:50.405Z,53.27
2019-03-23T11:02:23.525Z,52.90
2019-03-23T11:04:58.247Z,51.76
2019-03-23T11:07:32.521Z,51.34
2019-03-23T11:10:04.569Z,50.51
2019-03-23T11:12:37.360Z,50.71
2019-03-23T11:15:10.755Z,51.65
2019-03-23T11:17:44.455Z,52.42
2019-03-23T11:20:17.349Z,53.28
2019-03-23T11:22:49.701Z,52.44
2019-03-23T11:25:22.956Z,51.38
2019-03-23T11:27:57.481Z,51.79
2019-03-23T11:30:31.470Z,51.38
2019-03-23T11:33:03.369Z,51.58
2019-03-23T11:35:36.570Z,51.14
2019-03-23T11:38:10.161Z,50.95
2019-03-23T11:40:52.760Z,49.23
2019-03-23T11:43:19.541Z,49.23
2019-03-23T11:45:53.543Z,48.76
2019-03-23T11:48:25.523Z,50.78
2019-03-23T11:50:58.790Z,47.43
2019-03-23T11:53:31.589Z,49.80
2019-03-23T11:56:05.506Z,47.94
2019-03-23T11:58:38.673Z,48.98
2019-03-23T12:01:12.691Z,49.20
2019-03-23T12:03:51.765Z,48.84
2019-03-23T12:06:23.725Z,47.69
2019-03-23T12:08:55.649Z,47.06
2019-03-23T12:11:27.787Z,48.71
2019-03-23T12:14:03.726Z,46.61
2019-03-23T12:16:35.643Z,46.23
2019-03-23T12:19:09.906Z,46.74
2019-03-23T12:21:43.783Z,46.72
2019-03-23T12:24:15.788Z,47.02
2019-03-23T12:26:49.833Z,47.40
2019-03-23T12:29:24.373Z,45.10
2019-03-23T12:31:59.033Z,44.87
2019-03-23T12:34:32.294Z,45.65
2019-03-23T12:37:04.719Z,45.86
2019-03-23T12:39:37.650Z,44.39
2019-03-23T12:42:09.803Z,45.29
2019-03-23T12:44:43.819Z,45.76
2019-03-23T12:47:16.787Z,44.57
2019-03-23T12:49:50.148Z,43.90
2019-03-23T12:52:22.851Z,43.24
2019-03-23T12:54:54.807Z,44.27
2019-03-23T12:57:28.821Z,45.54
2019-03-23T13:00:03.230Z,43.85
2019-03-23T13:02:37.893Z,44.05
2019-03-23T13:05:10.764Z,43.67
2019-03-23T13:07:43.718Z,43.90
2019-03-23T13:10:17.196Z,42.62
2019-03-23T13:12:49.931Z,42.28
2019-03-23T13:15:23.734Z,42.82
2019-03-23T13:17:57.005Z,42.52
2019-03-23T13:23:09.664Z,42.18
2019-03-23T13:25:41.995Z,42.59
2019-03-23T13:28:13.918Z,43.20
2019-03-23T13:30:47.292Z,43.75
2019-03-23T13:33:20.035Z,42.70
2019-03-23T13:35:51.940Z,41.88
2019-03-23T13:38:26.154Z,42.10
2019-03-23T13:41:00.102Z,43.28
2019-03-23T13:43:31.901Z,42.42
2019-03-23T13:46:05.949Z,41.93
2019-03-23T13:48:37.990Z,42.67
2019-03-23T13:51:12.051Z,42.14
2019-03-23T13:53:43.924Z,41.53
2019-03-23T13:56:17.085Z,43.08
2019-03-23T13:58:49.073Z,41.03
2019-03-23T14:01:23.610Z,41.25
2019-03-23T14:03:57.221Z,42.67
2019-03-23T14:06:32.075Z,42.04
2019-03-23T14:09:05.346Z,42.74
2019-03-23T14:11:40.228Z,42.25
2019-03-23T14:14:13.079Z,40.82
2019-03-23T14:16:45.144Z,39.92
2019-03-23T14:19:17.044Z,40.91
2019-03-23T14:21:49.070Z,41.25
2019-03-23T14:24:23.071Z,41.07
2019-03-23T14:26:58.027Z,41.60
2019-03-23T14:29:33.498Z,41.37
2019-03-23T14:32:08.141Z,40.40
2019-03-23T14:34:41.173Z,40.53
2019-03-23T14:37:13.751Z,39.51
2019-03-23T14:39:47.162Z,40.27
2019-03-23T14:42:20.149Z,41.18
2019-03-23T14:44:53.383Z,40.15
2019-03-23T14:47:26.356Z,42.53
2019-03-23T14:49:59.232Z,40.74
2019-03-23T14:52:32.369Z,40.42
2019-03-23T14:55:07.014Z,42.04
2019-03-23T14:57:40.519Z,42.05
2019-03-23T15:00:13.655Z,40.71
2019-03-23T15:02:45.790Z,40.43
2019-03-23T15:05:22.050Z,38.69
2019-03-23T15:07:56.993Z,39.40
2019-03-23T15:10:28.916Z,39.91
2019-03-23T15:13:02.561Z,39.93
2019-03-23T15:15:36.482Z,39.74
2019-03-23T15:18:09.590Z,40.49
2019-03-23T15:20:42.966Z,40.20
2019-03-23T15:23:17.717Z,40.81
2019-03-23T15:25:51.580Z,40.95
2019-03-23T15:28:25.312Z,40.02
2019-03-23T15:30:59.574Z,40.07
2019-03-23T15:33:32.556Z,40.28
2019-03-23T15:36:05.304Z,41.46
2019-03-23T15:38:38.784Z,42.46
2019-03-23T15:41:13.862Z,42.86
2019-03-23T15:43:45.794Z,43.23
2019-03-23T15:46:17.870Z,44.47
2019-03-23T15:48:50.800Z,43.61
2019-03-23T15:51:24.456Z,43.55
2019-03-23T15:53:56.655Z,43.97
2019-03-23T15:56:28.878Z,45.47
2019-03-23T15:59:00.863Z,46.65
2019-03-23T16:01:35.543Z,45.88
2019-03-23T16:04:09.195Z,45.12
2019-03-23T16:06:43.566Z,45.96
2019-03-23T16:09:17.590Z,45.53
2019-03-23T16:11:52.821Z,45.56
2019-03-23T16:14:26.620Z,45.44
2019-03-23T16:16:58.669Z,45.94
2019-03-23T16:19:32.764Z,46.50
2019-03-23T16:22:06.693Z,47.28
2019-03-23T16:24:39.674Z,48.02
2019-03-23T16:27:13.646Z,48.40
2019-03-23T16:29:47.746Z,48.89
2019-03-23T16:32:21.147Z,49.51
2019-03-23T16:34:54.802Z,50.54
2019-03-23T16:37:26.893Z,50.88
2019-03-23T16:39:59.848Z,51.54
2019-03-23T16:42:32.967Z,52.10
2019-03-23T16:45:08.057Z,52.19
2019-03-23T16:47:41.842Z,52.34
2019-03-23T16:50:13.798Z,52.65
2019-03-23T16:52:47.824Z,53.00
2019-03-23T16:55:21.204Z,53.46
2019-03-23T16:57:57.356Z,54.13
2019-03-23T17:00:36.548Z,54.27
2019-03-23T17:03:11.012Z,54.25
2019-03-23T17:05:43.940Z,54.37
2019-03-23T17:08:16.923Z,54.65
2019-03-23T17:10:49.199Z,54.75
2019-03-23T17:13:22.954Z,55.51
2019-03-23T17:15:55.866Z,56.06
2019-03-23T17:18:28.902Z,56.32
2019-03-23T17:21:03.059Z,56.78
2019-03-23T17:23:34.895Z,57.71
2019-03-23T17:26:09.574Z,58.44
2019-03-23T17:28:44.090Z,59.44
2019-03-23T17:31:17.172Z,60.60
2019-03-23T17:33:51.802Z,59.74
2019-03-23T17:36:28.608Z,59.87
2019-03-23T17:39:02.082Z,60.29
2019-03-23T17:41:35.245Z,60.40
2019-03-23T17:44:10.298Z,60.54
2019-03-23T17:46:43.301Z,60.90
2019-03-23T17:49:17.219Z,61.65
2019-03-23T17:51:52.633Z,62.42
2019-03-23T17:54:26.189Z,62.56
2019-03-23T17:56:59.812Z,62.83
2019-03-23T17:59:32.579Z,63.53
2019-03-23T18:02:05.153Z,63.92
2019-03-23T18:04:39.820Z,64.42
2019-03-23T18:07:12.305Z,64.72
2019-03-23T18:09:45.202Z,64.86
2019-03-23T18:12:17.195Z,65.42
2019-03-23T18:14:49.376Z,65.96
2019-03-23T18:17:24.424Z,66.44
2019-03-23T18:19:58.891Z,66.87
2019-03-23T18:22:32.347Z,67.14
2019-03-23T18:25:05.874Z,67.34
2019-03-23T18:27:40.261Z,67.67
2019-03-23T18:30:41.230Z,67.87
2019-03-23T18:33:14.160Z,67.73
2019-03-23T18:35:47.995Z,67.90
2019-03-23T18:38:20.601Z,68.23
2019-03-23T18:40:53.330Z,68.48
2019-03-23T18:43:27.684Z,68.75
2019-03-23T18:46:02.264Z,69.02
2019-03-23T18:48:36.960Z,69.26
2019-03-23T18:51:12.226Z,69.83
2019-03-23T18:53:44.520Z,70.30
2019-03-23T18:56:17.409Z,70.59
2019-03-23T18:58:50.328Z,71.14
2019-03-23T19:01:23.497Z,71.71
2019-03-23T19:03:59.120Z,72.18
2019-03-23T19:06:32.485Z,72.36
2019-03-23T19:09:05.491Z,72.69
2019-03-23T19:11:37.413Z,73.30
2019-03-23T19:14:12.254Z,73.65
2019-03-23T19:16:44.678Z,74.24
2019-03-23T19:19:17.640Z,74.64
2019-03-23T19:21:50.587Z,74.77
2019-03-23T19:24:23.523Z,74.84
2019-03-23T19:26:58.127Z,75.24
2019-03-23T19:29:30.534Z,75.66
2019-03-23T19:32:02.699Z,76.22
2019-03-23T19:34:37.237Z,76.65
2019-03-23T19:37:11.613Z,76.80
2019-03-23T19:39:43.910Z,77.39
2019-03-23T19:42:19.116Z,77.44
2019-03-23T19:44:53.693Z,77.55
2019-03-23T19:47:25.563Z,77.82
2019-03-23T19:49:58.972Z,78.00
2019-03-23T19:52:33.515Z,78.24
2019-03-23T19:55:05.755Z,78.63
2019-03-23T19:57:38.938Z,79.03
2019-03-23T20:00:13.615Z,79.07
2019-03-23T20:02:47.551Z,79.58
2019-03-23T20:05:20.780Z,79.58
2019-03-23T20:07:55.391Z,79.86
2019-03-23T20:10:29.639Z,80.14
2019-03-23T20:13:02.697Z,80.46
2019-03-23T20:15:40.385Z,80.61
2019-03-23T20:18:13.654Z,80.68
2019-03-23T20:20:46.273Z,81.05
2019-03-23T20:23:18.168Z,81.38
2019-03-23T20:25:50.222Z,81.54
2019-03-23T20:28:25.741Z,81.57
2019-03-23T20:30:57.727Z,81.75
2019-03-23T20:33:29.952Z,82.12
2019-03-23T20:36:04.881Z,82.58
2019-03-23T20:38:40.551Z,82.87
2019-03-23T20:41:15.863Z,82.99
2019-03-23T20:43:48.862Z,83.14
2019-03-23T20:46:20.778Z,83.34
2019-03-23T20:48:53.941Z,83.52
2019-03-23T20:51:25.753Z,83.58
2019-03-23T20:54:00.317Z,83.52
2019-03-23T20:56:34.846Z,83.68
2019-03-23T20:59:06.922Z,83.73
2019-03-23T21:01:41.050Z,83.82
2019-03-23T21:04:14.146Z,83.94
2019-03-23T21:06:50.512Z,83.90
2019-03-23T21:09:24.044Z,83.95
2019-03-23T21:11:56.131Z,84.23
2019-03-23T21:14:30.031Z,84.48
2019-03-23T21:17:03.040Z,84.61
2019-03-23T21:19:37.180Z,84.75
2019-03-23T21:22:11.078Z,84.88
2019-03-23T21:24:44.077Z,85.34
2019-03-23T21:27:17.984Z,85.48
2019-03-23T21:29:51.377Z,85.61
2019-03-23T21:32:24.063Z,85.81
2019-03-23T21:34:58.034Z,85.90
2019-03-23T21:37:29.972Z,85.81
2019-03-23T21:40:03.167Z,86.01
2019-03-23T21:42:36.022Z,86.16
2019-03-23T21:45:10.157Z,86.16
2019-03-23T21:47:44.002Z,86.32
2019-03-23T21:50:18.239Z,86.32
2019-03-23T21:52:51.200Z,86.17
2019-03-23T21:55:23.583Z,86.13
2019-03-23T21:57:57.352Z,86.09
2019-03-23T22:00:35.936Z,86.19
2019-03-23T22:03:08.249Z,86.36
2019-03-23T22:05:40.743Z,86.83
2019-03-23T22:08:17.540Z,87.14
2019-03-23T22:10:50.998Z,87.17
2019-03-23T22:13:24.625Z,87.26
2019-03-23T22:16:05.123Z,87.66
2019-03-23T22:18:37.288Z,87.66
2019-03-23T22:21:11.363Z,87.99
2019-03-23T22:23:45.042Z,88.61
2019-03-23T22:26:18.395Z,88.61
2019-03-23T22:28:52.282Z,88.66
2019-03-23T22:31:26.301Z,88.69
2019-03-23T22:33:59.376Z,88.79
2019-03-23T22:36:33.327Z,88.88
2019-03-23T22:39:07.918Z,88.92
2019-03-23T22:41:40.309Z,89.06
2019-03-23T22:44:14.576Z,89.10
2019-03-23T22:46:47.392Z,89.28
2019-03-23T22:49:20.526Z,89.39
2019-03-23T22:51:54.286Z,89.58
2019-03-23T22:54:29.925Z,89.66
2019-03-23T22:57:04.487Z,89.76
2019-03-23T22:59:37.320Z,89.93
2019-03-23T23:02:09.224Z,90.01
2019-03-23T23:04:42.477Z,90.28
2019-03-23T23:07:14.398Z,90.42
2019-03-23T23:09:47.580Z,90.50
2019-03-23T23:12:20.400Z,90.70
2019-03-23T23:15:03.783Z,90.88
2019-03-23T23:17:27.646Z,90.88
2019-03-23T23:20:00.698Z,91.03
2019-03-23T23:22:32.535Z,91.06
2019-03-23T23:25:05.090Z,91.13
2019-03-23T23:27:38.570Z,91.13
2019-03-23T23:30:11.798Z,91.15
2019-03-23T23:32:45.545Z,91.15
2019-03-23T23:35:19.971Z,91.06
2019-03-23T23:37:52.651Z,91.19
2019-03-23T23:40:26.865Z,91.06
2019-03-23T23:43:00.735Z,91.21
2019-03-23T23:45:33.572Z,91.33
2019-03-23T23:48:07.748Z,91.36
2019-03-23T23:50:40.681Z,91.44
2019-03-23T23:53:14.567Z,91.35
2019-03-23T23:55:47.602Z,91.39
2019-03-23T23:58:22.117Z,91.38
